createdAt,value
2023-01-17T00:02:50.600Z,95821.47
2023-01-17T00:06:11.047Z,95821.94
2023-01-17T00:09:31.994Z,95839.44
2023-01-17T00:12:35.139Z,95825.28
2023-01-17T00:15:39.998Z,95827.41
2023-01-17T00:19:03.080Z,95837.41
2023-01-17T00:22:27.911Z,95833.94
2023-01-17T00:25:50.224Z,95841.22
2023-01-17T00:28:51.821Z,95834.06
2023-01-17T00:31:54.771Z,95832.03
2023-01-17T00:34:56.365Z,95836.97
2023-01-17T00:38:03.126Z,95840.09
2023-01-17T00:41:06.274Z,95846.38
2023-01-17T00:44:26.523Z,95835.47
2023-01-17T00:47:48.199Z,95846.97
2023-01-17T00:51:08.409Z,95839.88
2023-01-17T00:54:29.348Z,95849.63
2023-01-17T00:57:49.785Z,95852.44
2023-01-17T01:01:10.162Z,95868.97
2023-01-17T01:04:31.840Z,95866.41
2023-01-17T01:07:52.123Z,95875.47
2023-01-17T01:11:12.369Z,95878.94
2023-01-17T01:14:32.648Z,95892.88
2023-01-17T01:17:52.962Z,95898.94
2023-01-17T01:21:14.930Z,95905.00
2023-01-17T01:24:35.136Z,95898.03
2023-01-17T01:27:55.714Z,95903.66
2023-01-17T01:31:18.211Z,95907.91
2023-01-17T01:34:20.856Z,95912.47
2023-01-17T01:37:24.755Z,95908.78
2023-01-17T01:40:27.126Z,95902.53
2023-01-17T01:43:42.949Z,95914.66
2023-01-17T01:46:45.533Z,95913.56
2023-01-17T01:49:48.741Z,95901.63
2023-01-17T01:52:56.230Z,95902.97
2023-01-17T01:55:58.902Z,95902.19
2023-01-17T01:59:04.542Z,95904.09
2023-01-17T02:02:07.525Z,95901.16
2023-01-17T02:05:10.790Z,95908.44
2023-01-17T02:08:16.763Z,95906.41
2023-01-17T02:11:19.738Z,95903.38
2023-01-17T02:14:23.426Z,95900.31
2023-01-17T02:17:35.022Z,95904.16
2023-01-17T02:20:57.084Z,95900.31
2023-01-17T02:24:17.147Z,95897.19
2023-01-17T02:27:25.991Z,95885.28
2023-01-17T02:30:34.150Z,95891.25
2023-01-17T02:33:40.338Z,95900.03
2023-01-17T02:36:47.013Z,95905.44
2023-01-17T02:39:52.900Z,95907.78
2023-01-17T02:42:59.147Z,95904.72
2023-01-17T02:46:03.148Z,95902.38
2023-01-17T02:49:05.777Z,95895.19
2023-01-17T02:52:21.112Z,95894.16
2023-01-17T02:55:31.864Z,95887.38
2023-01-17T02:58:50.057Z,95877.50
2023-01-17T03:02:06.806Z,95881.19
2023-01-17T03:05:13.404Z,95880.19
2023-01-17T03:08:16.906Z,95883.00
2023-01-17T03:11:19.901Z,95873.41
2023-01-17T03:14:22.565Z,95876.72
2023-01-17T03:17:29.819Z,95881.63
2023-01-17T03:20:32.496Z,95891.13
2023-01-17T03:23:35.393Z,95885.06
2023-01-17T03:26:37.948Z,95898.81
2023-01-17T03:29:40.984Z,95901.88
2023-01-17T03:32:44.942Z,95899.81
2023-01-17T03:35:47.711Z,95906.13
2023-01-17T03:38:50.274Z,95908.22
2023-01-17T03:41:52.852Z,95912.50
2023-01-17T03:44:55.391Z,95910.94
2023-01-17T03:47:59.709Z,95931.81
2023-01-17T03:51:02.214Z,95926.00
2023-01-17T03:54:04.932Z,95937.91
2023-01-17T03:57:08.531Z,95959.38
2023-01-17T04:00:12.321Z,95934.00
2023-01-17T04:03:16.066Z,95938.25
2023-01-17T04:06:18.684Z,95937.13
2023-01-17T04:09:21.281Z,95930.50
2023-01-17T04:12:23.899Z,95912.63
2023-01-17T04:15:26.581Z,95913.28
2023-01-17T04:18:30.765Z,95910.16
2023-01-17T04:21:33.533Z,95908.94
2023-01-17T04:24:36.431Z,95904.31
2023-01-17T04:27:39.020Z,95906.31
2023-01-17T04:30:41.785Z,95908.44
2023-01-17T04:33:45.739Z,95909.94
2023-01-17T04:36:48.304Z,95903.22
2023-01-17T04:39:50.933Z,95908.38
2023-01-17T04:42:54.220Z,95914.91
2023-01-17T04:45:57.253Z,95915.34
2023-01-17T04:49:01.457Z,95922.28
2023-01-17T04:52:04.189Z,95932.50
2023-01-17T04:55:07.891Z,95926.22
2023-01-17T04:58:14.104Z,95930.38
2023-01-17T05:01:16.861Z,95929.47
2023-01-17T05:04:20.945Z,95930.34
2023-01-17T05:07:23.658Z,95924.94
2023-01-17T05:10:26.892Z,95927.88
2023-01-17T05:13:29.694Z,95924.28
2023-01-17T05:16:32.251Z,95929.78
2023-01-17T05:19:36.217Z,95927.22
2023-01-17T05:22:38.816Z,95929.16
2023-01-17T05:25:44.884Z,95923.06
2023-01-17T05:28:47.617Z,95907.47
2023-01-17T05:31:50.289Z,95905.13
2023-01-17T05:34:54.372Z,95913.44
2023-01-17T05:37:57.393Z,95910.63
2023-01-17T05:41:00.524Z,95912.31
2023-01-17T05:44:03.445Z,95915.78
2023-01-17T05:47:06.194Z,95924.06
2023-01-17T05:50:11.931Z,95922.06
2023-01-17T05:53:16.352Z,95911.81
2023-01-17T05:56:18.963Z,95899.56
2023-01-17T05:59:32.385Z,95895.72
2023-01-17T06:02:39.008Z,95891.31
2023-01-17T06:05:44.838Z,95887.16
2023-01-17T06:08:47.452Z,95867.97
2023-01-17T06:11:50.043Z,95871.03
2023-01-17T06:14:52.683Z,95874.41
2023-01-17T06:17:55.574Z,95870.69
2023-01-17T06:20:59.595Z,95861.25
2023-01-17T06:24:04.066Z,95856.56
2023-01-17T06:27:06.996Z,95858.06
2023-01-17T06:30:11.089Z,95853.09
2023-01-17T06:33:14.263Z,95842.34
2023-01-17T06:36:18.138Z,95845.38
2023-01-17T06:39:20.501Z,95839.84
2023-01-17T06:42:23.382Z,95842.22
2023-01-17T06:45:26.007Z,95853.88
2023-01-17T06:48:28.657Z,95856.03
2023-01-17T06:51:32.620Z,95866.66
2023-01-17T06:54:35.204Z,95858.44
2023-01-17T06:57:37.953Z,95865.91
2023-01-17T07:00:41.168Z,95864.88
2023-01-17T07:03:43.982Z,95857.66
2023-01-17T07:06:47.956Z,95863.09
2023-01-17T07:09:50.530Z,95856.50
2023-01-17T07:12:53.367Z,95847.47
2023-01-17T07:15:55.960Z,95844.66
2023-01-17T07:18:58.573Z,95847.88
2023-01-17T07:22:02.547Z,95849.00
2023-01-17T07:25:05.845Z,95851.72
2023-01-17T07:28:08.648Z,95831.78
2023-01-17T07:31:11.345Z,95840.00
2023-01-17T07:34:14.123Z,95831.44
2023-01-17T07:37:19.905Z,95821.47
2023-01-17T07:40:23.519Z,95811.16
2023-01-17T07:43:26.213Z,95814.69
2023-01-17T07:46:29.166Z,95820.41
2023-01-17T07:49:31.873Z,95816.69
2023-01-17T07:52:35.932Z,95815.59
2023-01-17T07:55:38.729Z,95805.97
2023-01-17T07:58:41.501Z,95804.44
2023-01-17T08:01:44.345Z,95815.56
2023-01-17T08:04:47.058Z,95813.31
2023-01-17T08:07:51.121Z,95811.78
2023-01-17T08:10:53.853Z,95806.06
2023-01-17T08:13:59.397Z,95806.00
2023-01-17T08:17:05.571Z,95816.78
2023-01-17T08:20:08.532Z,95811.81
2023-01-17T08:23:12.789Z,95808.66
2023-01-17T08:26:21.315Z,95809.19
2023-01-17T08:29:24.650Z,95810.84
2023-01-17T08:32:27.359Z,95812.81
2023-01-17T08:35:30.411Z,95810.66
2023-01-17T08:38:34.328Z,95809.50
2023-01-17T08:41:37.232Z,95811.47
2023-01-17T08:44:40.137Z,95809.91
2023-01-17T08:47:43.245Z,95802.88
2023-01-17T08:50:46.259Z,95807.97
2023-01-17T08:53:50.403Z,95803.34
2023-01-17T08:56:55.600Z,95795.69
2023-01-17T08:59:59.052Z,95790.00
2023-01-17T09:03:02.341Z,95799.34
2023-01-17T09:06:05.932Z,95791.06
2023-01-17T09:09:11.077Z,95791.91
2023-01-17T09:12:14.020Z,95795.22
2023-01-17T09:15:20.118Z,95791.66
2023-01-17T09:18:23.089Z,95780.34
2023-01-17T09:21:26.383Z,95781.97
2023-01-17T09:24:31.262Z,95779.28
2023-01-17T09:27:34.017Z,95789.03
2023-01-17T09:30:36.643Z,95779.72
2023-01-17T09:33:41.136Z,95769.34
2023-01-17T09:36:43.905Z,95763.06
2023-01-17T09:39:47.904Z,95766.59
2023-01-17T09:42:52.183Z,95757.25
2023-01-17T09:45:54.863Z,95756.63
2023-01-17T09:49:03.115Z,95756.03
2023-01-17T09:52:06.420Z,95754.38
2023-01-17T09:55:14.478Z,95751.44
2023-01-17T09:58:21.799Z,95753.34
2023-01-17T10:01:28.367Z,95751.69
2023-01-17T10:04:51.387Z,95750.28
2023-01-17T10:08:04.838Z,95745.66
2023-01-17T10:11:25.288Z,95743.75
2023-01-17T10:14:41.329Z,95745.88
2023-01-17T10:17:53.939Z,95741.78
2023-01-17T10:21:00.667Z,95743.84
2023-01-17T10:24:31.705Z,95742.94
2023-01-17T10:27:39.230Z,95742.66
2023-01-17T10:30:48.880Z,95744.03
2023-01-17T10:33:53.617Z,95741.91
2023-01-17T10:37:00.993Z,95739.56
2023-01-17T10:40:14.049Z,95737.13
2023-01-17T10:43:21.254Z,95730.28
2023-01-17T10:46:28.589Z,95732.81
2023-01-17T10:49:31.760Z,95723.19
2023-01-17T10:52:43.166Z,95722.16
2023-01-17T10:55:49.356Z,95717.34
2023-01-17T10:58:58.910Z,95711.66
2023-01-17T11:02:06.822Z,95713.63
2023-01-17T11:05:20.432Z,95710.31
2023-01-17T11:08:22.968Z,95706.00
2023-01-17T11:11:30.163Z,95701.66
2023-01-17T11:14:35.959Z,95714.88
2023-01-17T11:17:41.158Z,95712.53
2023-01-17T11:20:44.229Z,95711.53
2023-01-17T11:23:48.282Z,95691.13
2023-01-17T11:26:51.112Z,95669.25
2023-01-17T11:30:07.390Z,95657.50
2023-01-17T11:33:31.698Z,95653.31
2023-01-17T11:36:34.899Z,95648.97
2023-01-17T11:39:37.620Z,95659.44
2023-01-17T11:42:40.221Z,95665.75
2023-01-17T11:45:44.174Z,95658.88
2023-01-17T11:48:50.309Z,95645.00
2023-01-17T11:51:56.092Z,95645.09
2023-01-17T11:54:59.085Z,95639.72
2023-01-17T11:58:01.794Z,95636.03
2023-01-17T12:01:27.353Z,95626.28
2023-01-17T12:04:32.589Z,95611.47
2023-01-17T12:07:39.378Z,95592.63
2023-01-17T12:10:49.670Z,95593.72
2023-01-17T12:14:03.636Z,95605.00
2023-01-17T12:17:11.956Z,95599.97
2023-01-17T12:20:24.147Z,95586.16
2023-01-17T12:23:36.174Z,95582.28
2023-01-17T12:26:41.605Z,95583.59
2023-01-17T12:29:47.941Z,95588.63
2023-01-17T12:33:08.498Z,95576.41
2023-01-17T12:36:17.610Z,95567.34
2023-01-17T12:39:25.602Z,95564.50
2023-01-17T12:42:32.888Z,95568.38
2023-01-17T12:45:39.323Z,95561.00
2023-01-17T12:48:43.792Z,95554.19
2023-01-17T12:51:50.158Z,95552.28
2023-01-17T12:54:56.216Z,95542.94
2023-01-17T12:58:01.655Z,95538.91
2023-01-17T13:01:08.067Z,95527.28
2023-01-17T13:04:19.010Z,95517.53
2023-01-17T13:07:29.286Z,95506.72
2023-01-17T13:10:35.359Z,95516.00
2023-01-17T13:13:39.205Z,95510.88
2023-01-17T13:16:44.560Z,95504.25
2023-01-17T13:19:51.632Z,95504.03
2023-01-17T13:22:55.421Z,95500.44
2023-01-17T13:25:58.625Z,95506.31
2023-01-17T13:29:06.938Z,95496.22
2023-01-17T13:32:19.011Z,95501.59
2023-01-17T13:35:39.860Z,95505.78
2023-01-17T13:38:55.775Z,95502.63
2023-01-17T13:42:08.903Z,95498.78
2023-01-17T13:45:19.590Z,95494.94
2023-01-17T13:48:31.046Z,95491.94
2023-01-17T13:52:03.390Z,95494.09
2023-01-17T13:55:07.159Z,95493.19
2023-01-17T13:58:28.111Z,95489.22
2023-01-17T14:01:50.298Z,95490.06
2023-01-17T14:05:10.962Z,95489.63
2023-01-17T14:08:17.222Z,95500.25
2023-01-17T14:11:20.170Z,95498.63
2023-01-17T14:14:45.891Z,95503.50
2023-01-17T14:17:55.859Z,95510.97
2023-01-17T14:21:08.187Z,95506.94
2023-01-17T14:24:17.728Z,95510.59
2023-01-17T14:27:24.610Z,95502.00
2023-01-17T14:30:28.952Z,95500.47
2023-01-17T14:33:36.042Z,95502.25
2023-01-17T14:36:39.464Z,95500.16
2023-01-17T14:39:47.242Z,95506.28
2023-01-17T14:42:56.047Z,95497.16
2023-01-17T14:46:00.292Z,95491.66
2023-01-17T14:49:05.823Z,95484.56
2023-01-17T14:52:16.767Z,95497.63
2023-01-17T14:55:21.391Z,95490.63
2023-01-17T14:58:25.685Z,95494.81
2023-01-17T15:01:28.513Z,95485.38
2023-01-17T15:04:35.573Z,95496.13
2023-01-17T15:07:38.500Z,95492.84
2023-01-17T15:10:49.606Z,95495.81
2023-01-17T15:13:54.890Z,95496.44
2023-01-17T15:16:57.495Z,95494.41
2023-01-17T15:20:02.483Z,95482.41
2023-01-17T15:23:06.515Z,95482.34
2023-01-17T15:26:14.746Z,95482.94
2023-01-17T15:29:23.070Z,95486.03
2023-01-17T15:32:28.046Z,95491.06
2023-01-17T15:35:30.708Z,95484.41
2023-01-17T15:38:38.749Z,95488.56
2023-01-17T15:41:43.398Z,95488.56
2023-01-17T15:44:49.219Z,95486.94
2023-01-17T15:47:52.475Z,95484.13
2023-01-17T15:50:59.205Z,95482.91
2023-01-17T15:54:37.850Z,95483.41
2023-01-17T15:57:44.121Z,95483.94
2023-01-17T16:00:47.126Z,95479.03
2023-01-17T16:03:54.929Z,95491.31
2023-01-17T16:07:10.024Z,95493.13
2023-01-17T16:10:17.691Z,95495.06
2023-01-17T16:13:21.870Z,95496.56
2023-01-17T16:16:26.669Z,95504.97
2023-01-17T16:19:29.408Z,95505.38
2023-01-17T16:22:32.734Z,95505.03
2023-01-17T16:25:36.977Z,95510.44
2023-01-17T16:28:40.887Z,95512.44
2023-01-17T16:31:43.295Z,95512.78
2023-01-17T16:34:45.923Z,95516.28
2023-01-17T16:37:50.641Z,95511.28
2023-01-17T16:40:54.016Z,95514.34
2023-01-17T16:44:02.922Z,95514.19
2023-01-17T16:47:05.537Z,95508.22
2023-01-17T16:50:09.277Z,95511.75
2023-01-17T16:53:11.722Z,95512.97
2023-01-17T16:56:17.743Z,95515.66
2023-01-17T16:59:21.721Z,95516.41
2023-01-17T17:02:24.519Z,95523.59
2023-01-17T17:05:27.556Z,95517.50
2023-01-17T17:08:30.295Z,95528.66
2023-01-17T17:11:32.872Z,95528.28
2023-01-17T17:14:37.336Z,95521.72
2023-01-17T17:17:41.393Z,95531.06
2023-01-17T17:20:44.309Z,95528.72
2023-01-17T17:23:50.820Z,95544.59
2023-01-17T17:26:53.372Z,95542.19
2023-01-17T17:29:57.244Z,95545.19
2023-01-17T17:32:59.667Z,95554.97
2023-01-17T17:36:03.759Z,95557.59
2023-01-17T17:39:09.140Z,95566.69
2023-01-17T17:42:12.041Z,95569.78
2023-01-17T17:45:16.193Z,95575.97
2023-01-17T17:48:18.757Z,95581.78
2023-01-17T17:51:26.242Z,95582.66
2023-01-17T17:54:28.921Z,95590.16
2023-01-17T17:57:31.517Z,95595.13
2023-01-17T18:00:35.606Z,95585.03
2023-01-17T18:03:38.217Z,95586.53
2023-01-17T18:06:40.987Z,95592.53
2023-01-17T18:09:43.559Z,95595.56
2023-01-17T18:12:46.212Z,95592.53
2023-01-17T18:15:50.300Z,95591.66
2023-01-17T18:18:54.514Z,95595.31
2023-01-17T18:21:58.088Z,95596.63
2023-01-17T18:25:00.793Z,95602.81
2023-01-17T18:28:04.092Z,95596.69
2023-01-17T18:31:09.005Z,95605.81
2023-01-17T18:34:13.638Z,95615.13
2023-01-17T18:37:16.577Z,95608.41
2023-01-17T18:40:19.460Z,95610.44
2023-01-17T18:43:22.155Z,95607.31
2023-01-17T18:46:27.012Z,95613.56
2023-01-17T18:49:29.691Z,95609.72
2023-01-17T18:52:33.297Z,95600.53
2023-01-17T18:55:35.869Z,95615.81
2023-01-17T18:58:40.455Z,95604.94
2023-01-17T19:01:44.609Z,95605.03
2023-01-17T19:04:47.315Z,95599.28
2023-01-17T19:07:50.340Z,95609.81
2023-01-17T19:10:52.897Z,95606.31
2023-01-17T19:13:56.033Z,95608.59
2023-01-17T19:17:01.493Z,95611.44
2023-01-17T19:20:06.391Z,95613.69
2023-01-17T19:23:09.013Z,95615.50
2023-01-17T19:26:13.867Z,95620.63
2023-01-17T19:29:16.462Z,95616.84
2023-01-17T19:32:20.440Z,95626.19
2023-01-17T19:35:24.179Z,95621.16
2023-01-17T19:38:27.029Z,95622.91
2023-01-17T19:41:30.744Z,95621.41
2023-01-17T19:44:33.355Z,95633.00
2023-01-17T19:47:37.429Z,95624.72
2023-01-17T19:50:40.161Z,95632.38
2023-01-17T19:53:43.579Z,95627.56
2023-01-17T19:56:47.282Z,95625.91
2023-01-17T19:59:50.299Z,95618.94
2023-01-17T20:02:54.439Z,95618.50
2023-01-17T20:05:57.527Z,95616.25
2023-01-17T20:09:00.252Z,95617.47
2023-01-17T20:12:02.961Z,95610.84
2023-01-17T20:15:06.533Z,95607.81
2023-01-17T20:18:12.539Z,95613.13
2023-01-17T20:21:17.163Z,95615.59
2023-01-17T20:24:19.846Z,95623.91
2023-01-17T20:27:26.589Z,95620.50
2023-01-17T20:30:31.957Z,95617.56
2023-01-17T20:33:36.246Z,95621.84
2023-01-17T20:36:39.722Z,95616.44
2023-01-17T20:39:42.443Z,95612.63
2023-01-17T20:42:45.301Z,95619.84
2023-01-17T20:45:55.329Z,95617.38
2023-01-17T20:49:01.103Z,95617.97
2023-01-17T20:52:06.052Z,95612.78
2023-01-17T20:55:09.604Z,95609.72
2023-01-17T20:58:12.248Z,95604.69
2023-01-17T21:01:19.785Z,95612.91
2023-01-17T21:04:26.115Z,95609.44
2023-01-17T21:07:28.948Z,95613.25
2023-01-17T21:10:31.628Z,95610.50
2023-01-17T21:13:34.855Z,95624.09
2023-01-17T21:16:37.545Z,95625.13
2023-01-17T21:19:41.507Z,95614.78
2023-01-17T21:22:44.430Z,95619.22
2023-01-17T21:25:56.705Z,95625.31
2023-01-17T21:29:00.128Z,95615.22
2023-01-17T21:32:03.063Z,95624.44
2023-01-17T21:35:07.800Z,95624.91
2023-01-17T21:38:10.578Z,95621.59
2023-01-17T21:41:13.205Z,95626.16
2023-01-17T21:44:19.224Z,95627.69
2023-01-17T21:47:21.949Z,95632.94
2023-01-17T21:50:33.333Z,95625.44
2023-01-17T21:53:36.634Z,95626.22
2023-01-17T21:56:56.906Z,95622.19
2023-01-17T21:59:59.545Z,95630.16
2023-01-17T22:03:02.325Z,95622.50
2023-01-17T22:06:07.331Z,95633.13
2023-01-17T22:09:09.990Z,95626.63
2023-01-17T22:12:12.545Z,95626.72
2023-01-17T22:15:15.584Z,95622.03
2023-01-17T22:18:18.167Z,95624.63
2023-01-17T22:21:24.312Z,95623.28
2023-01-17T22:24:27.170Z,95619.03
2023-01-17T22:27:29.782Z,95616.81
2023-01-17T22:30:32.379Z,95620.78
2023-01-17T22:33:34.999Z,95613.34
2023-01-17T22:36:39.178Z,95615.91
2023-01-17T22:39:42.063Z,95612.50
2023-01-17T22:42:44.911Z,95613.50
2023-01-17T22:45:47.615Z,95610.47
2023-01-17T22:48:50.433Z,95613.72
2023-01-17T22:51:54.406Z,95616.06
2023-01-17T22:54:57.034Z,95617.63
2023-01-17T22:57:59.775Z,95616.25
2023-01-17T23:01:06.415Z,95623.00
2023-01-17T23:04:11.718Z,95623.00
2023-01-17T23:07:16.470Z,95621.34
2023-01-17T23:10:40.011Z,95618.00
2023-01-17T23:13:42.685Z,95607.34
2023-01-17T23:17:04.561Z,95607.91
2023-01-17T23:20:08.733Z,95616.03
2023-01-17T23:23:12.676Z,95609.28
2023-01-17T23:26:16.889Z,95611.63
2023-01-17T23:29:18.816Z,95608.84
2023-01-17T23:32:21.417Z,95605.56
2023-01-17T23:35:26.359Z,95607.25
2023-01-17T23:38:30.330Z,95602.97
2023-01-17T23:41:50.658Z,95609.69
2023-01-17T23:44:53.269Z,95610.00
2023-01-17T23:47:56.056Z,95618.69
2023-01-17T23:51:00.231Z,95613.53
2023-01-17T23:54:06.222Z,95606.59
2023-01-17T23:57:08.819Z,95605.56
